sensor_id;sensor_type;location;lat;lon;timestamp;pressure;altitude;pressure_sealevel;temperature;humidity
65659;BME280;60181;53.258;6.932;2023-03-19T00:03:58;101221.54;;;14.86;63.68
65659;BME280;60181;53.258;6.932;2023-03-19T00:08:02;101219.42;;;14.87;63.65
65659;BME280;60181;53.258;6.932;2023-03-19T00:12:06;101217.10;;;14.87;63.75
65659;BME280;60181;53.258;6.932;2023-03-19T00:16:10;101214.29;;;14.87;63.79
65659;BME280;60181;53.258;6.932;2023-03-19T00:20:14;101211.83;;;14.87;63.87
65659;BME280;60181;53.258;6.932;2023-03-19T00:24:18;101209.35;;;14.87;63.93
65659;BME280;60181;53.258;6.932;2023-03-19T00:28:22;101207.83;;;14.89;63.68
65659;BME280;60181;53.258;6.932;2023-03-19T00:32:26;101206.56;;;14.92;64.06
65659;BME280;60181;53.258;6.932;2023-03-19T00:36:30;101204.24;;;14.91;64.33
65659;BME280;60181;53.258;6.932;2023-03-19T00:40:34;101203.23;;;14.86;64.68
65659;BME280;60181;53.258;6.932;2023-03-19T00:44:38;101202.17;;;14.82;64.65
65659;BME280;60181;53.258;6.932;2023-03-19T00:48:42;101203.33;;;14.77;64.65
65659;BME280;60181;53.258;6.932;2023-03-19T00:52:46;101203.77;;;14.74;64.50
65659;BME280;60181;53.258;6.932;2023-03-19T00:56:50;101204.30;;;14.70;64.65
65659;BME280;60181;53.258;6.932;2023-03-19T01:00:54;101204.53;;;14.67;64.61
65659;BME280;60181;53.258;6.932;2023-03-19T01:04:58;101205.40;;;14.64;64.56
65659;BME280;60181;53.258;6.932;2023-03-19T01:09:02;101205.94;;;14.62;64.58
65659;BME280;60181;53.258;6.932;2023-03-19T01:13:06;101207.21;;;14.61;64.63
65659;BME280;60181;53.258;6.932;2023-03-19T01:17:10;101208.35;;;14.59;64.56
65659;BME280;60181;53.258;6.932;2023-03-19T01:21:14;101209.89;;;14.58;64.52
65659;BME280;60181;53.258;6.932;2023-03-19T01:25:18;101210.53;;;14.57;64.56
65659;BME280;60181;53.258;6.932;2023-03-19T01:29:22;101212.48;;;14.56;64.64
65659;BME280;60181;53.258;6.932;2023-03-19T01:33:26;101213.81;;;14.56;64.58
65659;BME280;60181;53.258;6.932;2023-03-19T01:37:30;101215.10;;;14.55;64.69
65659;BME280;60181;53.258;6.932;2023-03-19T01:41:34;101215.66;;;14.54;64.78
65659;BME280;60181;53.258;6.932;2023-03-19T01:45:38;101216.00;;;14.53;64.76
65659;BME280;60181;53.258;6.932;2023-03-19T01:49:42;101215.39;;;14.53;64.83
65659;BME280;60181;53.258;6.932;2023-03-19T01:53:46;101214.81;;;14.53;64.78
65659;BME280;60181;53.258;6.932;2023-03-19T01:57:50;101214.65;;;14.52;64.74
65659;BME280;60181;53.258;6.932;2023-03-19T02:01:55;101214.96;;;14.52;64.79
65659;BME280;60181;53.258;6.932;2023-03-19T02:05:58;101214.79;;;14.51;64.78
65659;BME280;60181;53.258;6.932;2023-03-19T02:10:06;101214.61;;;14.51;64.79
65659;BME280;60181;53.258;6.932;2023-03-19T02:14:06;101215.69;;;14.50;64.79
65659;BME280;60181;53.258;6.932;2023-03-19T02:18:10;101216.43;;;14.50;64.86
65659;BME280;60181;53.258;6.932;2023-03-19T02:22:15;101217.50;;;14.50;64.96
65659;BME280;60181;53.258;6.932;2023-03-19T02:26:18;101216.49;;;14.49;65.06
65659;BME280;60181;53.258;6.932;2023-03-19T02:30:26;101215.25;;;14.50;65.06
65659;BME280;60181;53.258;6.932;2023-03-19T02:38:30;101212.43;;;14.53;64.87
65659;BME280;60181;53.258;6.932;2023-03-19T02:42:34;101211.74;;;14.54;64.99
65659;BME280;60181;53.258;6.932;2023-03-19T02:46:38;101210.66;;;14.55;65.11
65659;BME280;60181;53.258;6.932;2023-03-19T02:50:42;101212.08;;;14.56;65.15
65659;BME280;60181;53.258;6.932;2023-03-19T02:54:46;101212.32;;;14.56;65.26
65659;BME280;60181;53.258;6.932;2023-03-19T02:58:50;101211.83;;;14.56;65.24
65659;BME280;60181;53.258;6.932;2023-03-19T03:02:55;101211.25;;;14.56;65.18
65659;BME280;60181;53.258;6.932;2023-03-19T03:06:57;101210.10;;;14.56;65.24
65659;BME280;60181;53.258;6.932;2023-03-19T03:11:02;101209.95;;;14.57;65.12
65659;BME280;60181;53.258;6.932;2023-03-19T03:15:06;101209.40;;;14.58;64.95
65659;BME280;60181;53.258;6.932;2023-03-19T03:19:09;101209.31;;;14.58;65.30
65659;BME280;60181;53.258;6.932;2023-03-19T03:23:13;101210.08;;;14.59;65.32
65659;BME280;60181;53.258;6.932;2023-03-19T03:27:17;101210.33;;;14.59;65.17
65659;BME280;60181;53.258;6.932;2023-03-19T03:31:21;101211.89;;;14.59;65.32
65659;BME280;60181;53.258;6.932;2023-03-19T03:35:25;101213.90;;;14.57;65.53
65659;BME280;60181;53.258;6.932;2023-03-19T03:39:29;101216.78;;;14.56;65.67
65659;BME280;60181;53.258;6.932;2023-03-19T03:43:33;101219.53;;;14.54;65.58
65659;BME280;60181;53.258;6.932;2023-03-19T03:47:37;101221.98;;;14.53;65.57
65659;BME280;60181;53.258;6.932;2023-03-19T03:51:41;101223.61;;;14.51;65.60
65659;BME280;60181;53.258;6.932;2023-03-19T03:55:45;101224.84;;;14.50;65.60
65659;BME280;60181;53.258;6.932;2023-03-19T03:59:49;101225.39;;;14.49;65.67
65659;BME280;60181;53.258;6.932;2023-03-19T04:03:54;101225.95;;;14.48;65.60
65659;BME280;60181;53.258;6.932;2023-03-19T04:07:57;101226.59;;;14.47;65.50
65659;BME280;60181;53.258;6.932;2023-03-19T04:12:02;101226.45;;;14.45;65.56
65659;BME280;60181;53.258;6.932;2023-03-19T04:16:06;101227.04;;;14.44;65.51
65659;BME280;60181;53.258;6.932;2023-03-19T04:20:10;101227.51;;;14.44;65.47
65659;BME280;60181;53.258;6.932;2023-03-19T04:24:13;101228.83;;;14.43;65.43
65659;BME280;60181;53.258;6.932;2023-03-19T04:28:17;101231.14;;;14.43;65.31
65659;BME280;60181;53.258;6.932;2023-03-19T04:32:21;101233.20;;;14.44;65.40
65659;BME280;60181;53.258;6.932;2023-03-19T04:36:25;101233.72;;;14.44;65.39
65659;BME280;60181;53.258;6.932;2023-03-19T04:40:29;101234.11;;;14.44;65.52
65659;BME280;60181;53.258;6.932;2023-03-19T04:44:33;101235.77;;;14.45;65.42
65659;BME280;60181;53.258;6.932;2023-03-19T04:48:37;101237.45;;;14.46;65.49
65659;BME280;60181;53.258;6.932;2023-03-19T04:52:41;101239.34;;;14.46;65.48
65659;BME280;60181;53.258;6.932;2023-03-19T04:56:45;101241.08;;;14.46;65.59
65659;BME280;60181;53.258;6.932;2023-03-19T05:00:49;101243.55;;;14.46;65.63
65659;BME280;60181;53.258;6.932;2023-03-19T05:04:53;101246.45;;;14.47;65.70
65659;BME280;60181;53.258;6.932;2023-03-19T05:08:57;101248.39;;;14.49;65.47
65659;BME280;60181;53.258;6.932;2023-03-19T05:13:01;101250.06;;;14.50;65.60
65659;BME280;60181;53.258;6.932;2023-03-19T05:17:05;101251.95;;;14.50;65.78
65659;BME280;60181;53.258;6.932;2023-03-19T05:21:10;101255.00;;;14.50;65.72
65659;BME280;60181;53.258;6.932;2023-03-19T05:25:13;101256.66;;;14.50;65.77
65659;BME280;60181;53.258;6.932;2023-03-19T05:29:17;101258.87;;;14.50;65.75
65659;BME280;60181;53.258;6.932;2023-03-19T05:33:21;101259.58;;;14.53;66.45
65659;BME280;60181;53.258;6.932;2023-03-19T05:37:25;101261.24;;;14.61;65.18
65659;BME280;60181;53.258;6.932;2023-03-19T05:41:29;101262.49;;;14.71;63.96
65659;BME280;60181;53.258;6.932;2023-03-19T05:45:33;101264.95;;;14.78;64.01
65659;BME280;60181;53.258;6.932;2023-03-19T05:49:37;101267.25;;;14.83;63.99
65659;BME280;60181;53.258;6.932;2023-03-19T05:53:41;101270.81;;;14.87;63.92
65659;BME280;60181;53.258;6.932;2023-03-19T05:57:45;101274.47;;;14.89;63.78
65659;BME280;60181;53.258;6.932;2023-03-19T06:01:49;101277.81;;;14.91;63.71
65659;BME280;60181;53.258;6.932;2023-03-19T06:05:53;101281.29;;;14.93;63.75
65659;BME280;60181;53.258;6.932;2023-03-19T06:09:57;101284.28;;;14.94;63.61
65659;BME280;60181;53.258;6.932;2023-03-19T06:14:01;101286.61;;;14.94;63.57
65659;BME280;60181;53.258;6.932;2023-03-19T06:18:05;101289.58;;;14.95;63.51
65659;BME280;60181;53.258;6.932;2023-03-19T06:22:09;101291.99;;;14.96;63.40
65659;BME280;60181;53.258;6.932;2023-03-19T06:26:13;101295.04;;;14.96;63.32
65659;BME280;60181;53.258;6.932;2023-03-19T06:30:17;101298.94;;;14.97;63.26
65659;BME280;60181;53.258;6.932;2023-03-19T06:34:21;101303.08;;;14.98;63.49
65659;BME280;60181;53.258;6.932;2023-03-19T06:38:25;101306.36;;;15.01;63.10
65659;BME280;60181;53.258;6.932;2023-03-19T06:42:29;101309.38;;;15.04;62.91
65659;BME280;60181;53.258;6.932;2023-03-19T06:46:33;101313.28;;;15.07;62.89
65659;BME280;60181;53.258;6.932;2023-03-19T06:50:37;101317.94;;;15.09;62.72
65659;BME280;60181;53.258;6.932;2023-03-19T06:54:41;101322.17;;;15.10;62.80
65659;BME280;60181;53.258;6.932;2023-03-19T06:58:45;101324.77;;;15.12;62.63
65659;BME280;60181;53.258;6.932;2023-03-19T07:02:49;101328.55;;;15.15;62.54
65659;BME280;60181;53.258;6.932;2023-03-19T07:06:53;101331.30;;;15.17;62.42
65659;BME280;60181;53.258;6.932;2023-03-19T07:11:04;101334.10;;;15.22;62.21
65659;BME280;60181;53.258;6.932;2023-03-19T07:15:01;101336.35;;;15.27;61.86
65659;BME280;60181;53.258;6.932;2023-03-19T07:19:05;101338.59;;;15.33;61.53
65659;BME280;60181;53.258;6.932;2023-03-19T07:23:09;101340.92;;;15.40;61.43
65659;BME280;60181;53.258;6.932;2023-03-19T07:27:13;101344.23;;;15.46;61.31
65659;BME280;60181;53.258;6.932;2023-03-19T07:31:17;101347.53;;;15.50;61.45
65659;BME280;60181;53.258;6.932;2023-03-19T07:35:21;101350.47;;;15.53;61.43
65659;BME280;60181;53.258;6.932;2023-03-19T07:39:25;101353.76;;;15.56;61.40
65659;BME280;60181;53.258;6.932;2023-03-19T07:43:29;101358.39;;;15.58;61.45
65659;BME280;60181;53.258;6.932;2023-03-19T07:47:33;101362.04;;;15.59;61.44
65659;BME280;60181;53.258;6.932;2023-03-19T07:51:37;101366.93;;;15.60;61.40
65659;BME280;60181;53.258;6.932;2023-03-19T07:55:41;101370.86;;;15.61;61.38
65659;BME280;60181;53.258;6.932;2023-03-19T07:59:45;101374.73;;;15.62;61.46
65659;BME280;60181;53.258;6.932;2023-03-19T08:03:49;101377.98;;;15.62;61.38
65659;BME280;60181;53.258;6.932;2023-03-19T08:07:53;101381.22;;;15.64;61.26
65659;BME280;60181;53.258;6.932;2023-03-19T08:11:57;101384.30;;;15.66;61.09
65659;BME280;60181;53.258;6.932;2023-03-19T08:16:01;101388.97;;;15.70;60.81
65659;BME280;60181;53.258;6.932;2023-03-19T08:20:06;101392.40;;;15.76;60.56
65659;BME280;60181;53.258;6.932;2023-03-19T08:24:09;101395.64;;;15.83;60.33
65659;BME280;60181;53.258;6.932;2023-03-19T08:28:13;101398.33;;;15.90;60.16
65659;BME280;60181;53.258;6.932;2023-03-19T08:32:17;101402.67;;;15.97;60.00
65659;BME280;60181;53.258;6.932;2023-03-19T08:36:21;101405.75;;;16.04;59.92
65659;BME280;60181;53.258;6.932;2023-03-19T08:40:25;101408.31;;;16.09;59.88
65659;BME280;60181;53.258;6.932;2023-03-19T08:44:29;101411.91;;;16.13;60.01
65659;BME280;60181;53.258;6.932;2023-03-19T08:48:33;101415.50;;;16.15;60.22
65659;BME280;60181;53.258;6.932;2023-03-19T08:52:37;101418.78;;;16.15;60.45
65659;BME280;60181;53.258;6.932;2023-03-19T08:56:41;101421.77;;;16.14;60.46
65659;BME280;60181;53.258;6.932;2023-03-19T09:00:45;101425.87;;;16.13;60.55
65659;BME280;60181;53.258;6.932;2023-03-19T09:04:49;101430.88;;;16.11;60.73
65659;BME280;60181;53.258;6.932;2023-03-19T09:08:53;101434.99;;;16.09;60.82
65659;BME280;60181;53.258;6.932;2023-03-19T09:12:57;101438.67;;;16.06;60.85
65659;BME280;60181;53.258;6.932;2023-03-19T09:17:01;101442.33;;;16.03;60.86
65659;BME280;60181;53.258;6.932;2023-03-19T09:21:05;101445.68;;;16.01;60.95
65659;BME280;60181;53.258;6.932;2023-03-19T09:25:09;101448.30;;;15.99;61.07
65659;BME280;60181;53.258;6.932;2023-03-19T09:29:13;101451.89;;;15.96;61.02
65659;BME280;60181;53.258;6.932;2023-03-19T09:33:17;101455.42;;;15.96;60.84
65659;BME280;60181;53.258;6.932;2023-03-19T09:37:21;101458.26;;;15.98;60.56
65659;BME280;60181;53.258;6.932;2023-03-19T09:41:34;101460.50;;;16.01;60.44
65659;BME280;60181;53.258;6.932;2023-03-19T09:45:29;101463.67;;;16.04;60.53
65659;BME280;60181;53.258;6.932;2023-03-19T09:49:42;101466.91;;;16.05;60.70
65659;BME280;60181;53.258;6.932;2023-03-19T09:57:41;101474.53;;;16.16;60.94
65659;BME280;60181;53.258;6.932;2023-03-19T10:01:47;101477.12;;;16.41;59.47
65659;BME280;60181;53.258;6.932;2023-03-19T10:18:11;101491.08;;;16.79;60.84
65659;BME280;60181;53.258;6.932;2023-03-19T10:22:06;101494.94;;;16.79;60.95
65659;BME280;60181;53.258;6.932;2023-03-19T10:26:10;101497.75;;;16.77;61.06
65659;BME280;60181;53.258;6.932;2023-03-19T10:30:15;101500.25;;;16.75;61.15
65659;BME280;60181;53.258;6.932;2023-03-19T10:38:22;101505.22;;;16.67;61.49
65659;BME280;60181;53.258;6.932;2023-03-19T10:46:35;101510.71;;;16.57;61.68
65659;BME280;60181;53.258;6.932;2023-03-19T10:50:34;101513.86;;;16.53;61.82
65659;BME280;60181;53.258;6.932;2023-03-19T10:54:38;101516.67;;;16.49;61.79
65659;BME280;60181;53.258;6.932;2023-03-19T10:58:41;101518.64;;;16.46;61.79
65659;BME280;60181;53.258;6.932;2023-03-19T11:02:46;101520.48;;;16.43;61.77
65659;BME280;60181;53.258;6.932;2023-03-19T11:06:49;101521.88;;;16.41;61.60
65659;BME280;60181;53.258;6.932;2023-03-19T11:10:53;101523.26;;;16.41;61.44
65659;BME280;60181;53.258;6.932;2023-03-19T11:14:57;101524.36;;;16.41;61.38
65659;BME280;60181;53.258;6.932;2023-03-19T11:19:01;101525.94;;;16.43;61.17
65659;BME280;60181;53.258;6.932;2023-03-19T11:23:06;101527.36;;;16.45;61.22
65659;BME280;60181;53.258;6.932;2023-03-19T11:27:09;101529.35;;;16.45;61.28
65659;BME280;60181;53.258;6.932;2023-03-19T11:31:20;101532.09;;;16.44;61.37
65659;BME280;60181;53.258;6.932;2023-03-19T11:35:20;101535.46;;;16.43;61.39
65659;BME280;60181;53.258;6.932;2023-03-19T11:39:27;101538.65;;;16.42;61.41
65659;BME280;60181;53.258;6.932;2023-03-19T11:43:32;101540.95;;;16.41;61.35
65659;BME280;60181;53.258;6.932;2023-03-19T11:47:30;101542.61;;;16.41;61.32
65659;BME280;60181;53.258;6.932;2023-03-19T11:51:45;101542.53;;;16.41;61.15
65659;BME280;60181;53.258;6.932;2023-03-19T12:12:11;101541.96;;;16.47;61.05
65659;BME280;60181;53.258;6.932;2023-03-19T12:20:08;101543.24;;;16.45;61.76
65659;BME280;60181;53.258;6.932;2023-03-19T12:28:14;101542.70;;;16.42;61.39
65659;BME280;60181;53.258;6.932;2023-03-19T12:36:19;101542.11;;;16.47;60.93
65659;BME280;60181;53.258;6.932;2023-03-19T12:44:28;101540.50;;;16.49;61.23
65659;BME280;60181;53.258;6.932;2023-03-19T12:48:30;101539.34;;;16.48;61.16
65659;BME280;60181;53.258;6.932;2023-03-19T12:52:42;101538.65;;;16.46;61.56
65659;BME280;60181;53.258;6.932;2023-03-19T13:00:46;101540.94;;;16.45;61.28
65659;BME280;60181;53.258;6.932;2023-03-19T13:04:48;101542.41;;;16.45;61.27
65659;BME280;60181;53.258;6.932;2023-03-19T13:08:51;101544.98;;;16.44;61.27
65659;BME280;60181;53.258;6.932;2023-03-19T13:12:53;101546.72;;;16.44;61.21
65659;BME280;60181;53.258;6.932;2023-03-19T13:17:02;101549.27;;;16.44;61.30
65659;BME280;60181;53.258;6.932;2023-03-19T13:25:05;101553.77;;;16.45;61.26
65659;BME280;60181;53.258;6.932;2023-03-19T13:29:19;101556.72;;;16.44;61.40
65659;BME280;60181;53.258;6.932;2023-03-19T13:33:15;101560.19;;;16.44;61.30
65659;BME280;60181;53.258;6.932;2023-03-19T13:37:17;101562.42;;;16.44;61.32
65659;BME280;60181;53.258;6.932;2023-03-19T13:45:34;101567.08;;;16.47;60.91
65659;BME280;60181;53.258;6.932;2023-03-19T13:49:30;101568.67;;;16.48;60.94
65659;BME280;60181;53.258;6.932;2023-03-19T13:53:34;101572.24;;;16.48;61.26
65659;BME280;60181;53.258;6.932;2023-03-19T13:57:37;101574.22;;;16.48;61.09
65659;BME280;60181;53.258;6.932;2023-03-19T14:01:41;101574.49;;;16.48;61.11
65659;BME280;60181;53.258;6.932;2023-03-19T14:05:45;101576.71;;;16.49;61.10
65659;BME280;60181;53.258;6.932;2023-03-19T14:13:53;101580.41;;;16.48;61.15
65659;BME280;60181;53.258;6.932;2023-03-19T14:17:58;101583.20;;;16.47;61.37
65659;BME280;60181;53.258;6.932;2023-03-19T14:22:20;101587.50;;;16.45;61.92
65659;BME280;60181;53.258;6.932;2023-03-19T14:26:05;101591.85;;;16.43;61.66
65659;BME280;60181;53.258;6.932;2023-03-19T14:30:10;101595.63;;;16.41;61.87
65659;BME280;60181;53.258;6.932;2023-03-19T14:38:23;101602.19;;;16.39;61.87
65659;BME280;60181;53.258;6.932;2023-03-19T14:42:28;101605.00;;;16.38;61.82
65659;BME280;60181;53.258;6.932;2023-03-19T14:46:27;101606.87;;;16.38;61.90
65659;BME280;60181;53.258;6.932;2023-03-19T14:58:36;101612.22;;;16.35;61.85
65659;BME280;60181;53.258;6.932;2023-03-19T15:02:44;101615.34;;;16.34;61.93
65659;BME280;60181;53.258;6.932;2023-03-19T15:06:52;101618.46;;;16.33;61.95
65659;BME280;60181;53.258;6.932;2023-03-19T15:18:56;101626.62;;;16.28;62.14
65659;BME280;60181;53.258;6.932;2023-03-19T15:23:01;101628.08;;;16.25;62.23
65659;BME280;60181;53.258;6.932;2023-03-19T15:31:08;101633.28;;;16.21;62.29
65659;BME280;60181;53.258;6.932;2023-03-19T15:35:13;101636.58;;;16.19;62.35
65659;BME280;60181;53.258;6.932;2023-03-19T15:39:16;101639.84;;;16.17;62.34
65659;BME280;60181;53.258;6.932;2023-03-19T15:43:20;101643.02;;;16.15;62.37
65659;BME280;60181;53.258;6.932;2023-03-19T15:47:26;101644.72;;;16.13;62.38
65659;BME280;60181;53.258;6.932;2023-03-19T15:51:28;101646.91;;;16.11;62.39
65659;BME280;60181;53.258;6.932;2023-03-19T15:55:33;101645.56;;;16.10;62.37
65659;BME280;60181;53.258;6.932;2023-03-19T15:59:36;101643.16;;;16.08;62.39
65659;BME280;60181;53.258;6.932;2023-03-19T16:03:59;101643.79;;;16.07;62.38
65659;BME280;60181;53.258;6.932;2023-03-19T16:07:47;101642.78;;;16.06;62.36
65659;BME280;60181;53.258;6.932;2023-03-19T16:11:48;101641.02;;;16.05;62.28
65659;BME280;60181;53.258;6.932;2023-03-19T16:15:58;101640.01;;;16.04;62.73
65659;BME280;60181;53.258;6.932;2023-03-19T16:19:59;101640.42;;;16.04;62.77
65659;BME280;60181;53.258;6.932;2023-03-19T16:24:02;101642.81;;;16.04;62.62
65659;BME280;60181;53.258;6.932;2023-03-19T16:28:05;101645.53;;;16.03;62.65
65659;BME280;60181;53.258;6.932;2023-03-19T16:36:12;101653.83;;;16.01;62.59
65659;BME280;60181;53.258;6.932;2023-03-19T16:44:20;101663.95;;;15.99;62.55
65659;BME280;60181;53.258;6.932;2023-03-19T16:48:24;101670.20;;;15.98;62.54
65659;BME280;60181;53.258;6.932;2023-03-19T16:52:28;101675.72;;;15.96;62.52
65659;BME280;60181;53.258;6.932;2023-03-19T16:56:32;101682.33;;;15.96;63.19
65659;BME280;60181;53.258;6.932;2023-03-19T17:00:36;101687.64;;;15.97;62.81
65659;BME280;60181;53.258;6.932;2023-03-19T17:04:40;101692.77;;;15.97;62.76
65659;BME280;60181;53.258;6.932;2023-03-19T17:08:44;101696.12;;;15.96;62.77
65659;BME280;60181;53.258;6.932;2023-03-19T17:12:49;101700.43;;;15.96;62.84
65659;BME280;60181;53.258;6.932;2023-03-19T17:16:52;101704.13;;;15.95;62.90
65659;BME280;60181;53.258;6.932;2023-03-19T17:21:10;101709.33;;;15.95;62.90
65659;BME280;60181;53.258;6.932;2023-03-19T17:25:00;101714.09;;;15.94;62.86
65659;BME280;60181;53.258;6.932;2023-03-19T17:29:04;101717.49;;;15.94;62.86
65659;BME280;60181;53.258;6.932;2023-03-19T17:33:18;101720.70;;;15.94;62.86
65659;BME280;60181;53.258;6.932;2023-03-19T17:37:12;101724.98;;;15.93;62.85
65659;BME280;60181;53.258;6.932;2023-03-19T17:41:17;101729.36;;;15.93;62.86
65659;BME280;60181;53.258;6.932;2023-03-19T17:45:23;101734.66;;;15.93;62.85
65659;BME280;60181;53.258;6.932;2023-03-19T17:49:26;101739.17;;;15.92;62.85
65659;BME280;60181;53.258;6.932;2023-03-19T17:53:28;101742.97;;;15.92;62.86
65659;BME280;60181;53.258;6.932;2023-03-19T17:57:32;101747.33;;;15.91;63.52
65659;BME280;60181;53.258;6.932;2023-03-19T18:01:36;101751.87;;;15.91;62.87
65659;BME280;60181;53.258;6.932;2023-03-19T18:05:40;101755.50;;;15.91;62.92
65659;BME280;60181;53.258;6.932;2023-03-19T18:09:44;101759.72;;;15.91;62.96
65659;BME280;60181;53.258;6.932;2023-03-19T18:13:48;101763.44;;;15.90;62.92
65659;BME280;60181;53.258;6.932;2023-03-19T18:17:53;101766.72;;;15.90;62.96
65659;BME280;60181;53.258;6.932;2023-03-19T18:21:56;101770.11;;;15.90;62.97
65659;BME280;60181;53.258;6.932;2023-03-19T18:26:00;101774.32;;;15.89;62.94
65659;BME280;60181;53.258;6.932;2023-03-19T18:30:05;101778.26;;;15.89;62.94
65659;BME280;60181;53.258;6.932;2023-03-19T18:34:09;101781.98;;;15.88;62.97
65659;BME280;60181;53.258;6.932;2023-03-19T18:38:16;101785.29;;;15.88;62.95
65659;BME280;60181;53.258;6.932;2023-03-19T18:42:16;101788.06;;;15.87;62.95
65659;BME280;60181;53.258;6.932;2023-03-19T18:46:29;101791.63;;;15.87;62.96
65659;BME280;60181;53.258;6.932;2023-03-19T18:50:25;101795.73;;;15.87;62.95
65659;BME280;60181;53.258;6.932;2023-03-19T18:54:28;101800.59;;;15.86;62.94
65659;BME280;60181;53.258;6.932;2023-03-19T18:58:32;101806.05;;;15.86;62.92
65659;BME280;60181;53.258;6.932;2023-03-19T19:02:36;101811.89;;;15.86;62.94
65659;BME280;60181;53.258;6.932;2023-03-19T19:06:40;101817.27;;;15.85;62.95
65659;BME280;60181;53.258;6.932;2023-03-19T19:10:52;101822.30;;;15.85;62.98
65659;BME280;60181;53.258;6.932;2023-03-19T19:14:48;101825.72;;;15.85;62.94
65659;BME280;60181;53.258;6.932;2023-03-19T19:18:52;101828.86;;;15.84;62.94
65659;BME280;60181;53.258;6.932;2023-03-19T19:22:56;101831.59;;;15.84;62.94
65659;BME280;60181;53.258;6.932;2023-03-19T19:27:00;101835.30;;;15.84;62.89
65659;BME280;60181;53.258;6.932;2023-03-19T19:31:04;101838.58;;;15.83;63.42
65659;BME280;60181;53.258;6.932;2023-03-19T19:35:18;101842.24;;;15.84;63.04
65659;BME280;60181;53.258;6.932;2023-03-19T19:39:12;101845.87;;;15.85;62.81
65659;BME280;60181;53.258;6.932;2023-03-19T19:43:17;101849.10;;;15.84;63.08
65659;BME280;60181;53.258;6.932;2023-03-19T19:47:20;101852.08;;;15.84;63.12
65659;BME280;60181;53.258;6.932;2023-03-19T19:51:25;101854.94;;;15.83;63.11
65659;BME280;60181;53.258;6.932;2023-03-19T19:55:28;101857.31;;;15.82;63.12
65659;BME280;60181;53.258;6.932;2023-03-19T19:59:32;101859.12;;;15.82;63.14
65659;BME280;60181;53.258;6.932;2023-03-19T20:03:36;101859.67;;;15.81;63.02
65659;BME280;60181;53.258;6.932;2023-03-19T20:07:40;101860.08;;;15.81;63.10
65659;BME280;60181;53.258;6.932;2023-03-19T20:11:44;101860.80;;;15.80;63.06
65659;BME280;60181;53.258;6.932;2023-03-19T20:15:48;101862.45;;;15.79;63.03
65659;BME280;60181;53.258;6.932;2023-03-19T20:19:52;101864.99;;;15.79;63.03
65659;BME280;60181;53.258;6.932;2023-03-19T20:23:56;101868.71;;;15.78;63.03
65659;BME280;60181;53.258;6.932;2023-03-19T20:28:00;101872.60;;;15.78;63.03
65659;BME280;60181;53.258;6.932;2023-03-19T20:32:04;101874.38;;;15.78;62.98
65659;BME280;60181;53.258;6.932;2023-03-19T20:36:11;101877.36;;;15.78;62.98
65659;BME280;60181;53.258;6.932;2023-03-19T20:40:12;101879.17;;;15.78;62.97
65659;BME280;60181;53.258;6.932;2023-03-19T20:44:18;101881.73;;;15.78;62.97
65659;BME280;60181;53.258;6.932;2023-03-19T20:48:20;101884.21;;;15.78;62.95
65659;BME280;60181;53.258;6.932;2023-03-19T20:52:24;101885.37;;;15.78;62.89
65659;BME280;60181;53.258;6.932;2023-03-19T20:56:28;101886.53;;;15.78;62.94
65659;BME280;60181;53.258;6.932;2023-03-19T21:00:32;101888.34;;;15.78;62.96
65659;BME280;60181;53.258;6.932;2023-03-19T21:04:36;101889.42;;;15.78;62.96
65659;BME280;60181;53.258;6.932;2023-03-19T21:08:41;101891.56;;;15.78;62.94
65659;BME280;60181;53.258;6.932;2023-03-19T21:12:44;101893.87;;;15.78;62.94
65659;BME280;60181;53.258;6.932;2023-03-19T21:16:48;101896.44;;;15.77;62.93
65659;BME280;60181;53.258;6.932;2023-03-19T21:20:53;101901.31;;;15.77;62.97
65659;BME280;60181;53.258;6.932;2023-03-19T21:25:00;101905.42;;;15.77;62.92
65659;BME280;60181;53.258;6.932;2023-03-19T21:29:01;101909.63;;;15.76;62.92
65659;BME280;60181;53.258;6.932;2023-03-19T21:33:04;101914.67;;;15.76;62.96
65659;BME280;60181;53.258;6.932;2023-03-19T21:37:08;101921.44;;;15.76;62.92
65659;BME280;60181;53.258;6.932;2023-03-19T21:41:22;101924.67;;;15.76;62.95
65659;BME280;60181;53.258;6.932;2023-03-19T21:45:24;101925.62;;;15.75;62.96
65659;BME280;60181;53.258;6.932;2023-03-19T21:49:20;101926.05;;;15.75;62.95
65659;BME280;60181;53.258;6.932;2023-03-19T21:53:24;101923.04;;;15.74;62.93
65659;BME280;60181;53.258;6.932;2023-03-19T21:57:28;101919.90;;;15.74;62.90
65659;BME280;60181;53.258;6.932;2023-03-19T22:01:32;101916.35;;;15.74;62.92
65659;BME280;60181;53.258;6.932;2023-03-19T22:05:36;101915.83;;;15.73;63.28
65659;BME280;60181;53.258;6.932;2023-03-19T22:09:40;101917.78;;;15.72;63.33
65659;BME280;60181;53.258;6.932;2023-03-19T22:13:44;101919.90;;;15.68;62.18
65659;BME280;60181;53.258;6.932;2023-03-19T22:17:48;101920.23;;;15.61;62.24
65659;BME280;60181;53.258;6.932;2023-03-19T22:21:52;101921.22;;;15.54;62.12
65659;BME280;60181;53.258;6.932;2023-03-19T22:25:56;101922.07;;;15.49;62.05
65659;BME280;60181;53.258;6.932;2023-03-19T22:30:00;101923.86;;;15.44;61.93
65659;BME280;60181;53.258;6.932;2023-03-19T22:34:04;101925.92;;;15.41;61.86
65659;BME280;60181;53.258;6.932;2023-03-19T22:38:08;101928.64;;;15.38;61.74
65659;BME280;60181;53.258;6.932;2023-03-19T22:42:12;101931.11;;;15.34;61.58
65659;BME280;60181;53.258;6.932;2023-03-19T22:46:16;101931.69;;;15.30;61.62
65659;BME280;60181;53.258;6.932;2023-03-19T22:50:21;101932.34;;;15.27;61.51
65659;BME280;60181;53.258;6.932;2023-03-19T22:54:24;101932.42;;;15.24;61.25
65659;BME280;60181;53.258;6.932;2023-03-19T22:58:28;101932.84;;;15.22;61.03
65659;BME280;60181;53.258;6.932;2023-03-19T23:02:32;101932.54;;;15.19;60.95
65659;BME280;60181;53.258;6.932;2023-03-19T23:06:36;101933.06;;;15.17;60.85